FLY9 NZKK-NZAP
Flight info
| Callsign | FLY9 |
|---|---|
| Flight time | 0h 40m |
| Altitude | 36000 |
| Route | UPGA1Q DCT SF H379 AA H211 GOSTI |
| Aircraft | C25C/M-SDE2E3FGHRWXY/LB1 |
Departure
| Time | 2026-04-14 04:07 |
|---|---|
| Airport | Kerikeri Airport (NZKK) |
Arrival
| Time | 2026-04-14 04:48 |
|---|---|
| Airport | Taupo Airport (NZAP) |
| Time | Latitude | Longitude | Altitude | Speed | Heading |
|---|---|---|---|---|---|
| 2026-04-14 03:50 | -35.26258 | 173.91245 | 491 ft | 0 kts | 244° |
| 2026-04-14 04:01 | -35.26272 | 173.91229 | 488 ft | 0 kts | 147° |
| 2026-04-14 04:02 | -35.26265 | 173.91286 | 490 ft | 9 kts | 75° |
| 2026-04-14 04:02 | -35.26217 | 173.91354 | 487 ft | 11 kts | 350° |
| 2026-04-14 04:02 | -35.26131 | 173.91327 | 489 ft | 33 kts | 345° |
| 2026-04-14 04:02 | -35.25658 | 173.91164 | 491 ft | 0 kts | 341° |
| 2026-04-14 04:03 | -35.26258 | 173.91245 | 491 ft | 0 kts | 244° |
| 2026-04-14 04:06 | -35.26267 | 173.91239 | 489 ft | 11 kts | 195° |
| 2026-04-14 04:06 | -35.26271 | 173.91267 | 487 ft | 9 kts | 58° |
| 2026-04-14 04:07 | -35.26236 | 173.91352 | 489 ft | 10 kts | 25° |
| 2026-04-14 04:07 | -35.26149 | 173.91332 | 489 ft | 21 kts | 346° |
| 2026-04-14 04:07 | -35.25606 | 173.91159 | 488 ft | 137 kts | 339° |
| 2026-04-14 04:07 | -35.24483 | 173.90818 | 1115 ft | 189 kts | 342° |
| 2026-04-14 04:08 | -35.23271 | 173.90449 | 2824 ft | 170 kts | 347° |
| 2026-04-14 04:08 | -35.22103 | 173.90762 | 4493 ft | 179 kts | 16° |
| 2026-04-14 04:08 | -35.21115 | 173.91760 | 6070 ft | 195 kts | 49° |
| 2026-04-14 04:08 | -35.20640 | 173.93347 | 7575 ft | 207 kts | 85° |
| 2026-04-14 04:09 | -35.20951 | 173.95080 | 9057 ft | 213 kts | 123° |
| 2026-04-14 04:09 | -35.21967 | 173.96375 | 10499 ft | 212 kts | 147° |
| 2026-04-14 04:09 | -35.23155 | 173.97490 | 11879 ft | 220 kts | 149° |
| 2026-04-14 04:09 | -35.24438 | 173.98548 | 13250 ft | 223 kts | 160° |
| 2026-04-14 04:10 | -35.25880 | 173.99254 | 14553 ft | 225 kts | 167° |
| 2026-04-14 04:10 | -35.27364 | 173.99962 | 15799 ft | 233 kts | 164° |
| 2026-04-14 04:10 | -35.28869 | 174.00780 | 17063 ft | 240 kts | 162° |
| 2026-04-14 04:10 | -35.30404 | 174.01648 | 18280 ft | 246 kts | 162° |
| 2026-04-14 04:11 | -35.31983 | 174.02528 | 19311 ft | 253 kts | 162° |
| 2026-04-14 04:11 | -35.33609 | 174.03428 | 20353 ft | 260 kts | 163° |
| 2026-04-14 04:11 | -35.35278 | 174.04347 | 21398 ft | 267 kts | 162° |
| 2026-04-14 04:11 | -35.36994 | 174.05298 | 22389 ft | 275 kts | 162° |
| 2026-04-14 04:12 | -35.38754 | 174.06275 | 23406 ft | 281 kts | 162° |
| 2026-04-14 04:12 | -35.40548 | 174.07270 | 24261 ft | 285 kts | 162° |
| 2026-04-14 04:12 | -35.41777 | 174.07953 | 24846 ft | 288 kts | 162° |
| 2026-04-14 04:12 | -35.43615 | 174.08972 | 25713 ft | 292 kts | 162° |
| 2026-04-14 04:13 | -35.45479 | 174.10010 | 26567 ft | 296 kts | 162° |
| 2026-04-14 04:13 | -35.47367 | 174.11057 | 27414 ft | 300 kts | 162° |
| 2026-04-14 04:13 | -35.49285 | 174.12122 | 28250 ft | 305 kts | 162° |
| 2026-04-14 04:13 | -35.51233 | 174.13207 | 28988 ft | 314 kts | 162° |
| 2026-04-14 04:14 | -35.53308 | 174.14350 | 29174 ft | 341 kts | 162° |
| 2026-04-14 04:14 | -35.55560 | 174.15595 | 29284 ft | 369 kts | 161° |
| 2026-04-14 04:14 | -35.57980 | 174.16948 | 29341 ft | 395 kts | 160° |
| 2026-04-14 04:14 | -35.60520 | 174.18370 | 29446 ft | 417 kts | 160° |
| 2026-04-14 04:15 | -35.63170 | 174.19859 | 30147 ft | 419 kts | 160° |
| 2026-04-14 04:15 | -35.65819 | 174.21340 | 30913 ft | 417 kts | 161° |
| 2026-04-14 04:15 | -35.68459 | 174.22812 | 31630 ft | 416 kts | 161° |
| 2026-04-14 04:15 | -35.71097 | 174.24285 | 32360 ft | 416 kts | 162° |
| 2026-04-14 04:16 | -35.73728 | 174.25758 | 33094 ft | 415 kts | 162° |
| 2026-04-14 04:16 | -35.76351 | 174.27229 | 33819 ft | 414 kts | 162° |
| 2026-04-14 04:16 | -35.78970 | 174.28695 | 34401 ft | 413 kts | 162° |
| 2026-04-14 04:16 | -35.81584 | 174.30160 | 34989 ft | 412 kts | 162° |
| 2026-04-14 04:17 | -35.84195 | 174.31626 | 35559 ft | 412 kts | 162° |
| 2026-04-14 04:17 | -35.86839 | 174.33105 | 35745 ft | 424 kts | 162° |
| 2026-04-14 04:17 | -35.89573 | 174.34635 | 35756 ft | 439 kts | 162° |
| 2026-04-14 04:17 | -35.92394 | 174.36223 | 35768 ft | 452 kts | 162° |
| 2026-04-14 04:18 | -35.95293 | 174.37861 | 35769 ft | 464 kts | 161° |
| 2026-04-14 04:18 | -35.98264 | 174.39536 | 35766 ft | 475 kts | 161° |
| 2026-04-14 04:18 | -36.01298 | 174.41243 | 35766 ft | 484 kts | 161° |
| 2026-04-14 04:19 | -36.07512 | 174.44756 | 35771 ft | 495 kts | 161° |
| 2026-04-14 04:19 | -36.13766 | 174.48296 | 35759 ft | 494 kts | 161° |
| 2026-04-14 04:20 | -36.20031 | 174.51842 | 35768 ft | 497 kts | 161° |
| 2026-04-14 04:20 | -36.26342 | 174.55428 | 35753 ft | 500 kts | 161° |
| 2026-04-14 04:21 | -36.32672 | 174.59026 | 35763 ft | 500 kts | 161° |
| 2026-04-14 04:21 | -36.38947 | 174.62601 | 35750 ft | 493 kts | 161° |
| 2026-04-14 04:22 | -36.45151 | 174.66138 | 35751 ft | 491 kts | 161° |
| 2026-04-14 04:22 | -36.51365 | 174.69692 | 35745 ft | 492 kts | 160° |
| 2026-04-14 04:23 | -36.57597 | 174.73262 | 35748 ft | 494 kts | 160° |
| 2026-04-14 04:23 | -36.63840 | 174.76843 | 35744 ft | 495 kts | 160° |
| 2026-04-14 04:24 | -36.70095 | 174.80436 | 35745 ft | 495 kts | 160° |
| 2026-04-14 04:24 | -36.76355 | 174.84039 | 35734 ft | 496 kts | 160° |
| 2026-04-14 04:25 | -36.82619 | 174.87652 | 35734 ft | 496 kts | 160° |
| 2026-04-14 04:25 | -36.88889 | 174.91275 | 35725 ft | 497 kts | 160° |
| 2026-04-14 04:26 | -36.95162 | 174.94908 | 35731 ft | 497 kts | 160° |
| 2026-04-14 04:26 | -37.01441 | 174.98550 | 35725 ft | 498 kts | 160° |
| 2026-04-14 04:27 | -37.07679 | 175.02173 | 35732 ft | 498 kts | 160° |
| 2026-04-14 04:27 | -37.13964 | 175.05830 | 35726 ft | 498 kts | 160° |
| 2026-04-14 04:28 | -37.20250 | 175.09495 | 35732 ft | 498 kts | 159° |
| 2026-04-14 04:28 | -37.26539 | 175.13169 | 35728 ft | 499 kts | 159° |
| 2026-04-14 04:29 | -37.32827 | 175.16851 | 35735 ft | 499 kts | 159° |
| 2026-04-14 04:29 | -37.39124 | 175.20543 | 35499 ft | 504 kts | 159° |
| 2026-04-14 04:29 | -37.42350 | 175.22430 | 34848 ft | 519 kts | 159° |
| 2026-04-14 04:30 | -37.45665 | 175.24378 | 34154 ft | 533 kts | 159° |
| 2026-04-14 04:30 | -37.49058 | 175.26377 | 33403 ft | 544 kts | 158° |
| 2026-04-14 04:30 | -37.52512 | 175.28417 | 32662 ft | 551 kts | 158° |
| 2026-04-14 04:30 | -37.55992 | 175.30469 | 31941 ft | 546 kts | 158° |
| 2026-04-14 04:31 | -37.59348 | 175.32456 | 31234 ft | 520 kts | 158° |
| 2026-04-14 04:31 | -37.62527 | 175.34337 | 30573 ft | 495 kts | 158° |
| 2026-04-14 04:31 | -37.68540 | 175.37886 | 29273 ft | 459 kts | 158° |
| 2026-04-14 04:32 | -37.71380 | 175.39566 | 28676 ft | 443 kts | 158° |
| 2026-04-14 04:32 | -37.74131 | 175.41202 | 28099 ft | 431 kts | 158° |
| 2026-04-14 04:32 | -37.76813 | 175.42789 | 27537 ft | 421 kts | 158° |
| 2026-04-14 04:32 | -37.79434 | 175.44346 | 27000 ft | 412 kts | 158° |
| 2026-04-14 04:33 | -37.82005 | 175.45872 | 26461 ft | 405 kts | 157° |
| 2026-04-14 04:33 | -37.84537 | 175.47377 | 25934 ft | 399 kts | 157° |
| 2026-04-14 04:33 | -37.87032 | 175.48863 | 25412 ft | 394 kts | 157° |
| 2026-04-14 04:33 | -37.89502 | 175.50332 | 24897 ft | 390 kts | 157° |
| 2026-04-14 04:34 | -37.91946 | 175.51791 | 24388 ft | 387 kts | 157° |
| 2026-04-14 04:34 | -37.94385 | 175.53242 | 23877 ft | 389 kts | 156° |
| 2026-04-14 04:34 | -37.96849 | 175.54715 | 23356 ft | 395 kts | 156° |
| 2026-04-14 04:34 | -37.99354 | 175.56209 | 22785 ft | 400 kts | 156° |
| 2026-04-14 04:35 | -38.01875 | 175.57720 | 22255 ft | 402 kts | 156° |
| 2026-04-14 04:35 | -38.04410 | 175.59235 | 21722 ft | 403 kts | 156° |
| 2026-04-14 04:35 | -38.06949 | 175.60754 | 21183 ft | 404 kts | 156° |
| 2026-04-14 04:35 | -38.09490 | 175.62280 | 20656 ft | 404 kts | 156° |
| 2026-04-14 04:36 | -38.12036 | 175.63803 | 20120 ft | 405 kts | 156° |
| 2026-04-14 04:36 | -38.14581 | 175.65334 | 19583 ft | 405 kts | 156° |
| 2026-04-14 04:36 | -38.17130 | 175.66861 | 19049 ft | 405 kts | 156° |
| 2026-04-14 04:36 | -38.19673 | 175.68393 | 18516 ft | 405 kts | 156° |
| 2026-04-14 04:37 | -38.22220 | 175.69923 | 17979 ft | 404 kts | 156° |
| 2026-04-14 04:37 | -38.24756 | 175.71451 | 17405 ft | 402 kts | 157° |
| 2026-04-14 04:37 | -38.27276 | 175.72968 | 16869 ft | 399 kts | 156° |
| 2026-04-14 04:37 | -38.29776 | 175.74478 | 16346 ft | 397 kts | 157° |
| 2026-04-14 04:38 | -38.32262 | 175.75976 | 15822 ft | 394 kts | 156° |
| 2026-04-14 04:38 | -38.34737 | 175.77470 | 15304 ft | 392 kts | 157° |
| 2026-04-14 04:38 | -38.37201 | 175.78961 | 14784 ft | 391 kts | 157° |
| 2026-04-14 04:38 | -38.39653 | 175.80442 | 14271 ft | 389 kts | 157° |
| 2026-04-14 04:39 | -38.42097 | 175.81923 | 13754 ft | 388 kts | 157° |
| 2026-04-14 04:39 | -38.44533 | 175.83395 | 13217 ft | 387 kts | 157° |
| 2026-04-14 04:39 | -38.46962 | 175.84846 | 12693 ft | 384 kts | 159° |
| 2026-04-14 04:39 | -38.49515 | 175.85581 | 12185 ft | 373 kts | 179° |
| 2026-04-14 04:40 | -38.52090 | 175.85897 | 11689 ft | 371 kts | 178° |
| 2026-04-14 04:40 | -38.54650 | 175.86227 | 11211 ft | 368 kts | 179° |
| 2026-04-14 04:40 | -38.57191 | 175.86525 | 10720 ft | 366 kts | 178° |
| 2026-04-14 04:41 | -38.62231 | 175.87150 | 9761 ft | 363 kts | 178° |
| 2026-04-14 04:41 | -38.64737 | 175.87464 | 9252 ft | 361 kts | 178° |
| 2026-04-14 04:41 | -38.67221 | 175.87777 | 8801 ft | 356 kts | 178° |
| 2026-04-14 04:41 | -38.69679 | 175.88081 | 8346 ft | 354 kts | 178° |
| 2026-04-14 04:42 | -38.72121 | 175.88383 | 7884 ft | 352 kts | 178° |
| 2026-04-14 04:42 | -38.74542 | 175.88690 | 7420 ft | 340 kts | 178° |
| 2026-04-14 04:42 | -38.76799 | 175.88980 | 6996 ft | 313 kts | 178° |
| 2026-04-14 04:42 | -38.78887 | 175.89241 | 6625 ft | 292 kts | 179° |
| 2026-04-14 04:43 | -38.80853 | 175.89484 | 6278 ft | 277 kts | 179° |
| 2026-04-14 04:43 | -38.82732 | 175.89715 | 5928 ft | 266 kts | 179° |
| 2026-04-14 04:43 | -38.84487 | 175.90347 | 5578 ft | 265 kts | 152° |
| 2026-04-14 04:43 | -38.85895 | 175.91829 | 5253 ft | 259 kts | 137° |
| 2026-04-14 04:44 | -38.87166 | 175.93443 | 4924 ft | 255 kts | 135° |
| 2026-04-14 04:44 | -38.88334 | 175.95126 | 4599 ft | 251 kts | 125° |
| 2026-04-14 04:44 | -38.88852 | 175.97216 | 4260 ft | 246 kts | 91° |
| 2026-04-14 04:44 | -38.88539 | 175.99301 | 3986 ft | 234 kts | 59° |
| 2026-04-14 04:45 | -38.87568 | 176.00921 | 3731 ft | 223 kts | 39° |
| 2026-04-14 04:45 | -38.86475 | 176.02314 | 3481 ft | 220 kts | 39° |
| 2026-04-14 04:45 | -38.85388 | 176.03676 | 3228 ft | 217 kts | 38° |
| 2026-04-14 04:45 | -38.84275 | 176.04926 | 3000 ft | 207 kts | 24° |
| 2026-04-14 04:46 | -38.82956 | 176.05444 | 2906 ft | 192 kts | 8° |
| 2026-04-14 04:46 | -38.81679 | 176.05907 | 2718 ft | 191 kts | 11° |
| 2026-04-14 04:46 | -38.80381 | 176.06345 | 2459 ft | 195 kts | 9° |
| 2026-04-14 04:46 | -38.79064 | 176.06791 | 2203 ft | 196 kts | 10° |
| 2026-04-14 04:47 | -38.77794 | 176.07225 | 1967 ft | 183 kts | 11° |
| 2026-04-14 04:47 | -38.76587 | 176.07636 | 1715 ft | 175 kts | 9° |
| 2026-04-14 04:47 | -38.75576 | 176.07971 | 1483 ft | 130 kts | 12° |
| 2026-04-14 04:47 | -38.74721 | 176.08283 | 1348 ft | 114 kts | 7° |
| 2026-04-14 04:48 | -38.74071 | 176.08494 | 1324 ft | 71 kts | 18° |
| 2026-04-14 04:48 | -38.73682 | 176.08625 | 1332 ft | 50 kts | 15° |
| 2026-04-14 04:48 | -38.73472 | 176.08628 | 1333 ft | 21 kts | 269° |
| 2026-04-14 04:48 | -38.73548 | 176.08591 | 1329 ft | 15 kts | 193° |
| 2026-04-14 04:49 | -38.73646 | 176.08557 | 1332 ft | 14 kts | 197° |
| 2026-04-14 04:49 | -38.73744 | 176.08527 | 1328 ft | 15 kts | 191° |
| 2026-04-14 04:49 | -38.73841 | 176.08495 | 1327 ft | 15 kts | 195° |
| 2026-04-14 04:49 | -38.73945 | 176.08457 | 1325 ft | 16 kts | 195° |
| 2026-04-14 04:50 | -38.73984 | 176.08422 | 1325 ft | 4 kts | 287° |
| 2026-04-14 04:50 | -38.73983 | 176.08421 | 1325 ft | 0 kts | 286° |
| 2026-04-14 04:51 | -38.73974 | 176.08398 | 1324 ft | 0 kts | 288° |
| 2026-04-14 04:54 | -38.73970 | 176.08392 | 1323 ft | 6 kts | 318° |
| 2026-04-14 04:54 | -38.73955 | 176.08350 | 1321 ft | 6 kts | 219° |
| 2026-04-14 04:54 | -38.73985 | 176.08336 | 1320 ft | 0 kts | 191° |